Newport, OR (97365)

4:02 PM PDT on August 29, 2014 (GMT -0700)
Beverly Beach, Newport, Oregon | Change Station
CLOSE
Current Station
Personal Weather Station
Location: Newport, OR
Elevation: 108 ft
Nearby Weather Stations

Elev 108 ft 44.72 °N, 124.06 °W | Updated 2 minutes ago

Overcast
Overcast
59.8 °F
Feels Like 59.8 °F
N
2.0
Wind Variable Wind from West
Gusts 4.0 mph

Today
High -- | Low -- °F
--% Chance of Precip.
Yesterday
High -- | Low -- °F
Precip. -- in
6:35 AM 7:57 PM
Waxing Crescent, 17% visible
Pressure 30.05 in
Visibility 7.0 miles
Clouds Overcast 300 ft
Dew Point 58 °F
Humidity 95%
Rainfall 0.00 in
Snow Depth Not available.
UV 2 out of 12
Pollen 3.30 out of 12
Air Quality Not available.
Flu Activity Not available.
METAR KONP 292255Z AUTO 23003KT 7SM OVC003 16/15 A3005 RMK AO2

More Conditions Fewer Conditions

Pressure 30.05 in
Visibility 7.0 miles
Clouds Overcast 300 ft
Dew Point 58 °F
Humidity 95%
Rainfall 0.00 in
Snow Depth Not available.
UV 2 out of 12
Pollen 3.30 out of 12
Air Quality Not available.
Flu Activity Not available.
METAR KONP 292255Z AUTO 23003KT 7SM OVC003 16/15 A3005 RMK AO2

More Conditions Fewer Conditions

10-Day Weather Forecast

Almanac

Astronomy

Aug. 29, 2014 Rise Set
Actual Time 6:35 AM PDT 7:57 PM PDT
Civil Twilight 6:04 AM PDT 8:28 PM PDT
Nautical Twilight 5:27 AM PDT 9:04 PM PDT
Astronomical Twilight 4:48 AM PDT 9:43 PM PDT
Moon 10:41 AM PDT 9:46 PM PDT
Length of Visible Light 14h 23m
Length of Day
13h 22m
Tomorrow will be 2m 57s shorter.
Waxing Crescent, 17% of the Moon is Illuminated
Today
Waxing Crescent
Sep 2
First Quarter
Sep 8
Full
Sep 15
Last Quarter
Sep 24
New

Today's Extremes

State Highs State Lows

Community

WunderPhotos

Upload Photos

1,748,363 photos uploaded!

Nearby

Snow Depth

Station Depth Elevation
Seine Creek 0 in 2000 ft
Daly Lake 0 in 3600 ft
Holland Meadows 0 in 4900 ft
Santiam Junction 0 in 3750 ft
Peavine Ridge 2 in 3500 ft

Earthquake Activity

City Distance Mag. Time & Date
No recent earthquake activity has been reported nearby.
Minimum magnitude displayed is 2.5.

Coastal Water Temperatures

Place Temperature
South Beach, OR 51.1 °F
Charleston, OR 52.0 °F

Nearby Weather Stations